createdAt,value
2022-12-27T00:00:59.266Z,55.40
2022-12-27T00:03:31.735Z,55.50
2022-12-27T00:06:07.264Z,56.30
2022-12-27T00:16:15.834Z,58.30
2022-12-27T00:18:44.641Z,57.90
2022-12-27T00:21:14.354Z,56.30
2022-12-27T00:23:47.160Z,49.30
2022-12-27T00:26:17.361Z,40.40
2022-12-27T00:28:46.356Z,36.70
2022-12-27T00:31:15.012Z,37.40
2022-12-27T00:33:45.277Z,34.40
2022-12-27T00:36:17.234Z,37.00
2022-12-27T00:38:46.697Z,33.70
2022-12-27T00:41:15.128Z,36.80
2022-12-27T00:43:43.461Z,32.50
2022-12-27T00:46:11.996Z,32.10
2022-12-27T00:48:40.780Z,34.90
2022-12-27T00:51:18.778Z,29.60
2022-12-27T00:53:48.237Z,31.90
2022-12-27T00:56:23.436Z,35.20
2022-12-27T00:59:01.375Z,35.00
2022-12-27T01:01:32.128Z,40.00
2022-12-27T01:04:01.247Z,39.90
2022-12-27T01:06:33.095Z,41.70
2022-12-27T01:09:02.837Z,34.40
2022-12-27T01:11:31.779Z,34.00
2022-12-27T01:14:02.378Z,34.80
2022-12-27T01:16:31.802Z,32.70
2022-12-27T01:19:01.110Z,25.20
2022-12-27T01:21:31.018Z,23.80
2022-12-27T01:23:59.583Z,27.20
2022-12-27T01:26:28.462Z,29.50
2022-12-27T01:28:57.254Z,30.80
2022-12-27T01:31:28.398Z,31.10
2022-12-27T01:33:58.929Z,26.20
2022-12-27T01:36:29.461Z,27.20
2022-12-27T01:38:59.994Z,26.90
2022-12-27T01:41:51.313Z,27.10
2022-12-27T01:44:44.303Z,24.90
2022-12-27T01:47:12.360Z,22.80
2022-12-27T01:50:18.511Z,23.90
2022-12-27T01:53:30.511Z,53.30
2022-12-27T01:56:06.405Z,40.90
2022-12-27T01:59:02.117Z,27.60
2022-12-27T02:01:46.821Z,24.70
2022-12-27T02:04:19.372Z,22.90
2022-12-27T02:06:48.633Z,23.00
2022-12-27T02:09:39.859Z,18.00
2022-12-27T02:12:10.904Z,18.90
2022-12-27T02:14:49.359Z,13.60
2022-12-27T02:17:25.277Z,11.30
2022-12-27T02:20:14.659Z,11.40
2022-12-27T02:23:16.912Z,9.50
2022-12-27T02:25:51.414Z,9.70
2022-12-27T02:28:40.251Z,8.40
2022-12-27T02:31:15.246Z,7.60
2022-12-27T02:33:48.732Z,8.30
2022-12-27T02:36:38.440Z,8.00
2022-12-27T02:39:07.101Z,9.60
2022-12-27T02:41:54.534Z,9.00
2022-12-27T02:44:41.543Z,8.20
2022-12-27T02:47:41.471Z,7.90
2022-12-27T02:50:31.393Z,7.30
2022-12-27T02:53:05.846Z,7.60
2022-12-27T02:56:28.551Z,8.50
2022-12-27T02:59:22.816Z,7.80
2022-12-27T03:02:45.863Z,7.90
2022-12-27T03:05:37.868Z,8.50
2022-12-27T03:08:25.752Z,8.60
2022-12-27T03:11:20.908Z,8.40
2022-12-27T03:14:08.593Z,8.50
2022-12-27T03:16:43.249Z,8.50
2022-12-27T03:19:11.290Z,7.60
2022-12-27T03:22:03.247Z,11.60
2022-12-27T03:24:55.979Z,8.40
2022-12-27T03:27:30.349Z,8.10
2022-12-27T03:30:19.920Z,8.80
2022-12-27T03:33:12.319Z,10.30
2022-12-27T03:36:16.343Z,9.90
2022-12-27T03:38:53.029Z,9.30
2022-12-27T03:41:46.609Z,9.10
2022-12-27T03:44:25.409Z,9.50
2022-12-27T03:46:59.858Z,10.50
2022-12-27T03:49:40.622Z,15.40
2022-12-27T03:52:23.655Z,10.40
2022-12-27T03:54:53.162Z,15.20
2022-12-27T03:57:24.834Z,10.80
2022-12-27T03:59:53.374Z,11.60
2022-12-27T04:02:21.858Z,9.10
2022-12-27T04:04:51.261Z,8.60
2022-12-27T04:07:19.445Z,8.30
2022-12-27T04:10:06.556Z,8.10
2022-12-27T04:12:53.591Z,7.20
2022-12-27T04:15:40.754Z,5.60
2022-12-27T04:18:28.050Z,5.80
2022-12-27T04:21:14.728Z,5.90
2022-12-27T04:24:01.855Z,6.10
2022-12-27T04:26:49.502Z,5.70
2022-12-27T04:29:36.473Z,5.90
2022-12-27T04:32:23.684Z,5.10
2022-12-27T04:34:51.792Z,5.00
2022-12-27T04:37:20.763Z,5.60
2022-12-27T04:40:09.442Z,5.50
2022-12-27T04:42:56.365Z,6.20
2022-12-27T04:45:43.818Z,5.60
2022-12-27T04:48:33.351Z,5.80
2022-12-27T04:51:21.410Z,6.70
2022-12-27T04:54:08.425Z,10.70
2022-12-27T04:56:36.581Z,10.60
2022-12-27T04:59:23.518Z,8.90
2022-12-27T05:02:04.570Z,8.80
2022-12-27T05:04:37.064Z,6.10
2022-12-27T05:07:28.591Z,12.00
2022-12-27T05:10:18.390Z,20.50
2022-12-27T05:13:05.308Z,8.80
2022-12-27T05:15:33.895Z,8.10
2022-12-27T05:18:02.079Z,7.40
2022-12-27T05:20:30.554Z,7.00
2022-12-27T05:23:17.812Z,6.70
2022-12-27T05:25:47.601Z,6.50
2022-12-27T05:28:15.850Z,21.50
2022-12-27T05:30:44.946Z,34.10
2022-12-27T05:33:13.532Z,48.50
2022-12-27T05:35:42.015Z,36.80
2022-12-27T05:38:10.321Z,19.20
2022-12-27T05:40:38.876Z,11.00
2022-12-27T05:43:07.049Z,14.10
2022-12-27T05:45:35.369Z,14.30
2022-12-27T05:48:03.816Z,9.70
2022-12-27T05:50:32.139Z,11.90
2022-12-27T05:53:11.957Z,11.80
2022-12-27T05:55:41.034Z,12.90
2022-12-27T05:58:09.292Z,11.10
2022-12-27T06:00:37.526Z,10.60
2022-12-27T06:03:06.356Z,38.60
2022-12-27T06:05:34.975Z,9.80
2022-12-27T06:08:03.127Z,16.00
2022-12-27T06:10:31.311Z,9.90
2022-12-27T06:17:52.166Z,25.40
2022-12-27T06:20:20.864Z,31.40
2022-12-27T06:22:49.798Z,17.60
2022-12-27T06:25:18.324Z,83.60
2022-12-27T06:27:46.560Z,122.00
2022-12-27T06:30:15.599Z,7.40
2022-12-27T06:32:45.418Z,26.10
2022-12-27T06:35:14.620Z,7.50
2022-12-27T06:37:42.793Z,69.20
2022-12-27T06:40:11.391Z,58.00
2022-12-27T06:42:39.937Z,38.90
2022-12-27T06:45:10.403Z,8.60
2022-12-27T06:47:38.783Z,8.20
2022-12-27T06:50:07.514Z,4.20
2022-12-27T06:52:36.038Z,22.30
2022-12-27T06:55:04.780Z,6.50
2022-12-27T06:57:33.004Z,26.70
2022-12-27T07:00:03.544Z,6.10
2022-12-27T07:02:32.125Z,17.00
2022-12-27T07:05:01.119Z,14.10
2022-12-27T07:07:30.318Z,20.50
2022-12-27T07:09:59.072Z,9.70
2022-12-27T07:12:31.800Z,20.50
2022-12-27T07:15:06.499Z,16.80
2022-12-27T07:17:36.375Z,18.00
2022-12-27T07:20:06.026Z,15.70
2022-12-27T07:22:35.648Z,25.20
2022-12-27T07:25:04.644Z,24.20
2022-12-27T07:27:34.867Z,63.50
2022-12-27T07:30:05.112Z,33.60
2022-12-27T07:32:33.280Z,24.10
2022-12-27T07:35:01.674Z,9.00
2022-12-27T07:37:30.052Z,18.90
2022-12-27T07:39:58.556Z,17.80
2022-12-27T07:42:29.161Z,17.80
2022-12-27T07:44:57.658Z,8.60
2022-12-27T07:47:26.283Z,5.70
2022-12-27T07:49:54.695Z,4.50
2022-12-27T07:52:48.921Z,6.40
2022-12-27T07:55:17.467Z,5.40
2022-12-27T07:57:46.171Z,3.10
2022-12-27T08:00:17.542Z,3.20
2022-12-27T08:02:48.347Z,2.10
2022-12-27T08:05:18.427Z,3.00
2022-12-27T08:07:48.607Z,3.40
2022-12-27T08:10:43.184Z,3.60
2022-12-27T08:13:11.882Z,4.20
2022-12-27T08:15:43.591Z,13.20
2022-12-27T08:18:12.285Z,63.80
2022-12-27T08:20:41.853Z,7.30
2022-12-27T08:23:10.308Z,6.00
2022-12-27T08:25:42.060Z,10.70
2022-12-27T08:32:53.589Z,14.80
2022-12-27T08:35:51.613Z,6.90
2022-12-27T08:38:10.839Z,6.10
2022-12-27T08:40:44.274Z,11.00
2022-12-27T08:43:13.230Z,7.50
2022-12-27T08:45:42.032Z,18.00
2022-12-27T08:48:10.472Z,15.50
2022-12-27T08:50:39.084Z,9.10
2022-12-27T08:53:08.176Z,8.10
2022-12-27T08:55:37.035Z,8.20
2022-12-27T09:05:42.430Z,6.30
2022-12-27T09:08:11.743Z,9.80
2022-12-27T09:10:40.167Z,15.70
2022-12-27T09:13:08.769Z,14.60
2022-12-27T09:15:38.756Z,16.80
2022-12-27T09:18:08.162Z,15.50
2022-12-27T09:20:37.579Z,9.30
2022-12-27T09:23:05.728Z,10.90
2022-12-27T09:25:34.288Z,9.80
2022-12-27T09:28:02.943Z,16.30
2022-12-27T09:30:31.372Z,14.20
2022-12-27T09:32:59.671Z,12.10
2022-12-27T09:35:27.954Z,15.50
2022-12-27T09:37:57.157Z,11.30
2022-12-27T09:40:25.433Z,13.20
2022-12-27T09:43:16.236Z,9.00
2022-12-27T09:45:55.835Z,6.20
2022-12-27T09:48:36.991Z,8.20
2022-12-27T09:51:14.880Z,9.90
2022-12-27T09:53:53.904Z,12.30
2022-12-27T09:56:54.590Z,15.20
2022-12-27T09:59:21.408Z,17.70
2022-12-27T10:01:49.816Z,20.20
2022-12-27T10:04:19.290Z,14.40
2022-12-27T10:06:50.776Z,11.60
2022-12-27T10:09:48.183Z,7.90
2022-12-27T10:12:29.954Z,12.80
2022-12-27T10:15:24.163Z,15.20
2022-12-27T10:18:15.173Z,11.30
2022-12-27T10:20:59.727Z,9.60
2022-12-27T10:23:34.491Z,7.70
2022-12-27T10:26:08.042Z,8.40
2022-12-27T10:28:41.737Z,8.10
2022-12-27T10:31:18.816Z,6.00
2022-12-27T10:33:49.409Z,7.40
2022-12-27T10:36:27.034Z,6.10
2022-12-27T10:38:55.327Z,8.00
2022-12-27T10:41:32.547Z,9.30
2022-12-27T10:44:01.242Z,6.30
2022-12-27T10:46:33.443Z,5.60
2022-12-27T10:53:41.245Z,6.20
2022-12-27T10:56:15.516Z,7.30
2022-12-27T10:58:58.496Z,4.80
2022-12-27T11:01:30.265Z,9.20
2022-12-27T11:04:21.661Z,6.80
2022-12-27T11:07:05.272Z,6.00
2022-12-27T11:09:46.269Z,7.40
2022-12-27T11:12:21.892Z,6.40
2022-12-27T11:14:55.794Z,6.30
2022-12-27T11:17:44.232Z,4.90
2022-12-27T11:20:12.643Z,5.70
2022-12-27T11:23:10.061Z,5.40
2022-12-27T11:25:53.793Z,8.30
2022-12-27T11:28:22.801Z,6.20
2022-12-27T11:31:00.959Z,6.90
2022-12-27T11:33:54.125Z,8.20
2022-12-27T11:36:38.726Z,9.00
2022-12-27T11:39:08.218Z,7.70
2022-12-27T11:41:50.239Z,8.20
2022-12-27T11:44:30.313Z,7.80
2022-12-27T11:47:22.630Z,8.20
2022-12-27T11:50:14.240Z,5.90
2022-12-27T11:53:16.206Z,4.10
2022-12-27T11:56:03.227Z,7.10
2022-12-27T11:58:49.437Z,11.10
2022-12-27T12:01:40.233Z,14.20
2022-12-27T12:04:17.605Z,26.70
2022-12-27T12:07:01.474Z,3.40
2022-12-27T12:09:39.263Z,4.50
2022-12-27T12:12:10.233Z,4.30
2022-12-27T12:14:44.727Z,4.00
2022-12-27T12:17:26.833Z,5.20
2022-12-27T12:20:28.247Z,4.70
2022-12-27T12:23:25.379Z,4.10
2022-12-27T12:26:12.881Z,4.10
2022-12-27T12:28:58.795Z,4.80
2022-12-27T12:31:34.183Z,8.70
2022-12-27T12:34:14.977Z,3.80
2022-12-27T12:37:05.506Z,2.80
2022-12-27T12:39:53.823Z,2.10
2022-12-27T12:42:27.564Z,1.90
2022-12-27T12:47:52.218Z,3.60
2022-12-27T12:50:45.307Z,4.40
2022-12-27T12:53:22.803Z,3.80
2022-12-27T12:55:57.937Z,4.50
2022-12-27T12:58:58.660Z,3.20
2022-12-27T13:02:05.858Z,3.40
2022-12-27T13:09:36.846Z,5.00
2022-12-27T13:15:01.970Z,4.90
2022-12-27T13:17:48.180Z,6.90
2022-12-27T13:20:49.537Z,12.40
2022-12-27T13:23:26.283Z,6.70
2022-12-27T13:26:00.584Z,6.20
2022-12-27T13:28:39.856Z,7.10
2022-12-27T13:31:17.818Z,7.80
2022-12-27T13:33:52.606Z,5.50
2022-12-27T13:36:34.742Z,5.60
2022-12-27T13:39:07.480Z,4.70
2022-12-27T13:41:43.846Z,5.00
2022-12-27T13:44:12.193Z,5.40
2022-12-27T13:46:56.602Z,6.40
2022-12-27T13:49:50.071Z,6.00
2022-12-27T13:52:37.083Z,7.70
2022-12-27T13:55:25.862Z,7.30
2022-12-27T13:58:26.565Z,6.40
2022-12-27T14:01:22.679Z,8.00
2022-12-27T14:04:13.819Z,8.70
2022-12-27T14:07:03.918Z,8.80
2022-12-27T14:09:54.040Z,8.10
2022-12-27T14:12:57.438Z,7.50
2022-12-27T14:16:00.826Z,6.90
2022-12-27T14:18:44.234Z,9.50
2022-12-27T14:21:26.953Z,6.90
2022-12-27T14:23:58.736Z,5.50
2022-12-27T14:26:52.728Z,8.70
2022-12-27T14:29:39.087Z,7.60
2022-12-27T14:32:34.124Z,10.00
2022-12-27T14:35:21.012Z,5.00
2022-12-27T14:38:17.707Z,7.70
2022-12-27T14:40:56.999Z,6.00
2022-12-27T14:43:40.831Z,5.30
2022-12-27T14:46:21.734Z,7.00
2022-12-27T14:49:28.080Z,5.30
2022-12-27T14:52:19.133Z,4.70
2022-12-27T14:55:02.788Z,5.60
2022-12-27T14:58:16.881Z,3.20
2022-12-27T15:01:12.020Z,3.90
2022-12-27T15:03:59.006Z,3.10
2022-12-27T15:07:15.721Z,3.00
2022-12-27T15:10:19.372Z,3.20
2022-12-27T15:12:47.812Z,4.40
2022-12-27T15:15:38.244Z,4.10
2022-12-27T15:18:20.064Z,3.40
2022-12-27T15:21:21.162Z,4.50
2022-12-27T15:24:05.847Z,4.00
2022-12-27T15:27:03.617Z,8.10
2022-12-27T15:30:01.809Z,3.60
2022-12-27T15:32:44.230Z,3.80
2022-12-27T15:35:25.455Z,5.50
2022-12-27T15:38:05.692Z,4.30
2022-12-27T15:40:33.889Z,6.50
2022-12-27T15:43:24.000Z,6.20
2022-12-27T15:45:53.381Z,5.00
2022-12-27T15:48:53.132Z,9.50
2022-12-27T15:51:40.423Z,3.60
2022-12-27T15:54:40.102Z,2.90
2022-12-27T15:57:20.660Z,3.50
2022-12-27T15:59:54.239Z,4.40
2022-12-27T16:02:49.251Z,2.70
2022-12-27T16:05:20.974Z,2.90
2022-12-27T16:07:58.488Z,2.60
2022-12-27T16:10:30.644Z,1.80
2022-12-27T16:13:20.146Z,1.80
2022-12-27T16:15:52.262Z,1.70
2022-12-27T16:18:23.854Z,1.60
2022-12-27T16:21:11.266Z,3.20
2022-12-27T16:23:54.285Z,5.10
2022-12-27T16:26:29.820Z,2.60
2022-12-27T16:28:59.853Z,1.80
2022-12-27T16:31:32.713Z,1.70
2022-12-27T16:34:13.624Z,1.50
2022-12-27T16:36:47.739Z,2.00
2022-12-27T16:39:45.678Z,1.80
2022-12-27T16:42:14.301Z,1.70
2022-12-27T16:44:53.322Z,1.80
2022-12-27T16:47:46.037Z,1.80
2022-12-27T16:50:43.328Z,1.60
2022-12-27T16:53:45.192Z,1.90
2022-12-27T16:56:22.909Z,1.60
2022-12-27T16:58:52.000Z,2.30
2022-12-27T17:01:36.729Z,1.90
2022-12-27T17:04:05.545Z,1.60
2022-12-27T17:06:36.887Z,1.70
2022-12-27T17:09:11.457Z,1.90
2022-12-27T17:11:45.126Z,2.60
2022-12-27T17:14:21.802Z,1.90
2022-12-27T17:16:58.386Z,1.60
2022-12-27T17:19:44.374Z,1.50
2022-12-27T17:22:16.434Z,2.00
2022-12-27T17:24:46.659Z,1.80
2022-12-27T17:27:40.536Z,1.50
2022-12-27T17:33:00.443Z,1.90
2022-12-27T17:35:50.947Z,4.30
2022-12-27T17:38:50.146Z,1.60
2022-12-27T17:41:52.724Z,2.30
2022-12-27T17:44:39.469Z,2.30
2022-12-27T17:47:19.981Z,2.10
2022-12-27T17:49:49.230Z,1.80
2022-12-27T17:52:38.072Z,1.90
2022-12-27T17:55:40.382Z,2.10
2022-12-27T17:58:11.872Z,1.50
2022-12-27T18:00:55.210Z,3.30
2022-12-27T18:03:28.929Z,3.40
2022-12-27T18:05:57.488Z,2.70
2022-12-27T18:08:30.105Z,1.90
2022-12-27T18:10:59.889Z,3.00
2022-12-27T18:13:33.577Z,2.20
2022-12-27T18:16:16.098Z,2.90
2022-12-27T18:18:50.372Z,14.10
2022-12-27T18:21:27.455Z,3.40
2022-12-27T18:23:56.939Z,2.00
2022-12-27T18:26:38.634Z,1.80
2022-12-27T18:29:11.407Z,1.90
2022-12-27T18:31:53.253Z,2.90
2022-12-27T18:34:28.440Z,2.10
2022-12-27T18:37:03.617Z,5.10
2022-12-27T18:39:49.476Z,8.10
2022-12-27T18:42:30.043Z,5.50
2022-12-27T18:45:04.150Z,3.80
2022-12-27T18:47:40.325Z,12.10
2022-12-27T18:50:17.890Z,15.40
2022-12-27T18:52:52.891Z,5.90
2022-12-27T18:55:27.707Z,9.90
2022-12-27T18:58:08.146Z,4.00
2022-12-27T19:01:01.757Z,4.80
2022-12-27T19:03:33.856Z,3.90
2022-12-27T19:06:08.113Z,5.60
2022-12-27T19:08:44.673Z,2.50
2022-12-27T19:11:36.449Z,1.90
2022-12-27T19:14:05.603Z,1.50
2022-12-27T19:16:35.889Z,1.70
2022-12-27T19:19:28.073Z,2.00
2022-12-27T19:21:57.097Z,2.30
2022-12-27T19:24:28.981Z,2.20
2022-12-27T19:27:02.938Z,7.00
2022-12-27T19:29:37.867Z,4.40
2022-12-27T19:32:10.343Z,3.30
2022-12-27T19:34:49.215Z,4.10
2022-12-27T19:37:18.165Z,3.00
2022-12-27T19:39:48.909Z,3.30
2022-12-27T19:42:28.345Z,2.40
2022-12-27T19:44:57.087Z,2.70
2022-12-27T19:47:27.655Z,2.20
2022-12-27T19:49:56.009Z,2.60
2022-12-27T19:52:27.096Z,2.00
2022-12-27T19:55:02.865Z,3.40
2022-12-27T19:57:31.057Z,3.00
2022-12-27T19:59:59.454Z,11.30
2022-12-27T20:02:28.019Z,39.80
2022-12-27T20:04:56.973Z,60.50
2022-12-27T20:07:26.029Z,19.80
2022-12-27T20:09:54.457Z,22.80
2022-12-27T20:12:22.660Z,13.00
2022-12-27T20:14:51.231Z,9.60
2022-12-27T20:17:19.491Z,14.80
2022-12-27T20:19:47.871Z,9.80
2022-12-27T20:22:15.881Z,8.40
2022-12-27T20:24:44.944Z,13.00
2022-12-27T20:27:13.791Z,10.70
2022-12-27T20:29:42.115Z,7.60
2022-12-27T20:32:10.832Z,5.50
2022-12-27T20:34:39.224Z,10.30
2022-12-27T20:37:07.470Z,10.70
2022-12-27T20:39:35.748Z,10.80
2022-12-27T20:42:04.644Z,12.10
2022-12-27T20:44:33.417Z,14.10
2022-12-27T20:47:01.576Z,7.70
2022-12-27T20:49:29.824Z,9.00
2022-12-27T20:51:58.208Z,6.10
2022-12-27T20:54:26.343Z,12.50
2022-12-27T20:56:54.625Z,15.30
2022-12-27T20:59:23.128Z,27.20
2022-12-27T21:01:56.777Z,21.20
2022-12-27T21:04:27.117Z,10.90
2022-12-27T21:06:55.398Z,13.80
2022-12-27T21:09:23.997Z,22.40
2022-12-27T21:11:55.945Z,22.80
2022-12-27T21:14:24.190Z,24.50
2022-12-27T21:16:52.662Z,23.50
2022-12-27T21:19:20.983Z,16.00
2022-12-27T21:21:49.175Z,13.70
2022-12-27T21:24:17.459Z,13.30
2022-12-27T21:26:45.921Z,13.50
2022-12-27T21:29:16.481Z,14.30
2022-12-27T21:31:45.139Z,18.10
2022-12-27T21:34:13.830Z,23.10
2022-12-27T21:36:42.424Z,20.00
2022-12-27T21:39:10.690Z,35.60
2022-12-27T21:41:40.759Z,21.50
2022-12-27T21:44:09.309Z,28.80
2022-12-27T21:46:40.580Z,29.90
2022-12-27T21:49:13.237Z,21.50
2022-12-27T21:51:43.590Z,17.70
2022-12-27T21:54:14.053Z,16.40
2022-12-27T21:56:42.869Z,14.90
2022-12-27T21:59:12.179Z,12.60
2022-12-27T22:01:51.251Z,12.80
2022-12-27T22:04:21.801Z,16.00
2022-12-27T22:06:50.625Z,14.70
2022-12-27T22:09:19.498Z,15.70
2022-12-27T22:11:48.142Z,13.10
2022-12-27T22:14:18.065Z,12.00
2022-12-27T22:16:48.959Z,14.30
2022-12-27T22:19:17.136Z,11.70
2022-12-27T22:21:45.330Z,14.60
2022-12-27T22:24:19.545Z,16.40
2022-12-27T22:26:50.459Z,27.50
2022-12-27T22:29:19.106Z,21.40
2022-12-27T22:31:47.640Z,15.70
2022-12-27T22:34:16.329Z,18.80
2022-12-27T22:36:44.627Z,23.40
2022-12-27T22:39:12.882Z,19.80
2022-12-27T22:41:41.312Z,22.00
2022-12-27T22:44:14.253Z,34.90
2022-12-27T22:47:24.983Z,30.50
2022-12-27T22:49:31.812Z,27.60
2022-12-27T22:51:59.982Z,29.80
2022-12-27T22:55:05.844Z,22.00
2022-12-27T22:57:16.366Z,24.80
2022-12-27T22:59:44.789Z,21.50
2022-12-27T23:02:13.169Z,11.70
2022-12-27T23:04:41.815Z,9.60
2022-12-27T23:07:10.256Z,7.70
2022-12-27T23:09:43.095Z,6.50
2022-12-27T23:12:13.128Z,7.10
2022-12-27T23:14:41.414Z,6.20
2022-12-27T23:17:09.895Z,6.10
2022-12-27T23:19:38.524Z,7.30
2022-12-27T23:22:06.864Z,6.10
2022-12-27T23:24:35.134Z,7.10
2022-12-27T23:27:03.636Z,5.80
2022-12-27T23:29:31.900Z,5.60
2022-12-27T23:32:00.307Z,6.20
2022-12-27T23:34:29.363Z,8.60
2022-12-27T23:36:59.301Z,6.20
2022-12-27T23:39:28.329Z,5.00
2022-12-27T23:41:56.764Z,4.70
2022-12-27T23:44:33.788Z,4.10
2022-12-27T23:47:05.651Z,4.30
2022-12-27T23:49:34.790Z,4.80
2022-12-27T23:52:03.424Z,4.60
2022-12-27T23:54:31.985Z,4.70
2022-12-27T23:57:20.032Z,4.40
2022-12-27T23:59:49.667Z,18.30
